Terminal Aerodrome Forecast
Issued by NWS

Home | Current Version | Previous Version | Text Only | Print | Product List | Glossary On
Versions: 1 2 3 4 5 6 7 8 9 10 11 12 13
000
FTUS46 KPDT 220533
TAFBDN
TAF
KBDN 220533Z 2206/2306 19011KT P6SM SCT040 BKN150
     FM221100 18014G22KT 4SM -SN BR BKN010 BKN030
     FM221800 20011KT P6SM VCSH SCT035 BKN120
     FM222300 19010KT P6SM SCT050 BKN150=

USA.gov is the U.S. government's official web portal to all federal, state and local government web resources and services.